createdAt,value
2023-03-11T00:02:03.533Z,934.20
2023-03-11T00:04:29.828Z,934.15
2023-03-11T00:06:56.148Z,934.25
2023-03-11T00:09:22.540Z,934.38
2023-03-11T00:11:48.928Z,934.34
2023-03-11T00:14:15.281Z,934.21
2023-03-11T00:16:41.706Z,934.20
2023-03-11T00:19:08.049Z,934.16
2023-03-11T00:21:34.418Z,934.08
2023-03-11T00:24:00.827Z,933.94
2023-03-11T00:26:27.148Z,933.91
2023-03-11T00:28:53.504Z,933.79
2023-03-11T00:31:19.888Z,933.86
2023-03-11T00:33:46.200Z,933.85
2023-03-11T00:36:12.622Z,933.83
2023-03-11T00:38:38.925Z,933.86
2023-03-11T00:41:05.266Z,933.87
2023-03-11T00:43:31.655Z,933.86
2023-03-11T00:45:58.153Z,933.97
2023-03-11T00:48:24.399Z,933.92
2023-03-11T00:50:50.718Z,933.78
2023-03-11T00:53:17.106Z,933.76
2023-03-11T00:55:43.465Z,933.72
2023-03-11T00:58:09.825Z,933.64
2023-03-11T01:00:36.140Z,933.57
2023-03-11T01:03:02.530Z,933.52
2023-03-11T01:05:28.851Z,933.49
2023-03-11T01:07:55.199Z,933.52
2023-03-11T01:10:21.528Z,933.48
2023-03-11T01:12:47.883Z,933.53
2023-03-11T01:15:14.243Z,933.48
2023-03-11T01:17:40.630Z,933.39
2023-03-11T01:20:06.989Z,933.25
2023-03-11T01:22:33.405Z,933.27
2023-03-11T01:24:59.717Z,933.19
2023-03-11T01:27:26.106Z,933.09
2023-03-11T01:29:52.421Z,933.05
2023-03-11T01:32:18.819Z,933.02
2023-03-11T01:34:45.150Z,932.96
2023-03-11T01:37:11.542Z,932.92
2023-03-11T01:39:37.862Z,932.92
2023-03-11T01:42:04.221Z,932.80
2023-03-11T01:44:30.560Z,932.82
2023-03-11T01:46:56.911Z,932.74
2023-03-11T01:49:23.254Z,932.88
2023-03-11T01:51:49.579Z,932.83
2023-03-11T01:54:15.898Z,932.86
2023-03-11T01:56:42.243Z,932.95
2023-03-11T01:59:08.621Z,933.01
2023-03-11T02:01:35.975Z,933.12
2023-03-11T02:04:01.313Z,933.02
2023-03-11T02:06:27.701Z,933.00
2023-03-11T02:08:54.066Z,933.00
2023-03-11T02:11:20.382Z,933.09
2023-03-11T02:13:46.779Z,933.19
2023-03-11T02:16:13.142Z,933.25
2023-03-11T02:18:39.462Z,933.26
2023-03-11T02:21:05.795Z,933.27
2023-03-11T02:23:32.189Z,933.27
2023-03-11T02:25:58.535Z,933.29
2023-03-11T02:28:24.938Z,933.37
2023-03-11T02:30:51.257Z,933.29
2023-03-11T02:33:17.663Z,933.16
2023-03-11T02:35:44.045Z,933.32
2023-03-11T02:38:10.371Z,933.28
2023-03-11T02:40:36.744Z,933.16
2023-03-11T02:43:03.093Z,933.12
2023-03-11T02:45:29.444Z,933.06
2023-03-11T02:47:55.835Z,933.25
2023-03-11T02:50:22.195Z,933.22
2023-03-11T02:52:48.539Z,933.35
2023-03-11T02:55:14.904Z,933.40
2023-03-11T02:57:41.259Z,933.31
2023-03-11T03:00:07.598Z,933.33
2023-03-11T03:02:33.972Z,933.41
2023-03-11T03:05:00.266Z,933.38
2023-03-11T03:07:26.613Z,933.38
2023-03-11T03:09:52.934Z,933.42
2023-03-11T03:12:19.286Z,933.41
2023-03-11T03:14:45.683Z,933.47
2023-03-11T03:17:12.154Z,933.47
2023-03-11T03:19:38.428Z,933.47
2023-03-11T03:22:04.799Z,933.51
2023-03-11T03:24:31.134Z,933.57
2023-03-11T03:26:57.506Z,933.50
2023-03-11T03:29:23.875Z,933.44
2023-03-11T03:31:50.309Z,933.49
2023-03-11T03:34:16.565Z,933.56
2023-03-11T03:36:42.949Z,933.57
2023-03-11T03:39:09.263Z,933.46
2023-03-11T03:41:35.659Z,933.45
2023-03-11T03:44:01.991Z,933.49
2023-03-11T03:46:28.343Z,933.47
2023-03-11T03:48:54.709Z,933.51
2023-03-11T03:51:21.089Z,933.51
2023-03-11T03:53:47.411Z,933.46
2023-03-11T03:56:13.774Z,933.46
2023-03-11T03:58:40.093Z,933.37
2023-03-11T04:01:06.453Z,933.37
2023-03-11T04:03:32.813Z,933.37
2023-03-11T04:05:59.172Z,933.33
2023-03-11T04:08:25.529Z,933.32
2023-03-11T04:10:51.888Z,933.25
2023-03-11T04:13:18.248Z,933.20
2023-03-11T04:15:44.644Z,933.27
2023-03-11T04:18:10.965Z,933.28
2023-03-11T04:20:37.324Z,933.32
2023-03-11T04:23:03.657Z,933.30
2023-03-11T04:25:30.048Z,933.40
2023-03-11T04:27:56.372Z,933.36
2023-03-11T04:30:22.748Z,933.32
2023-03-11T04:32:49.170Z,933.31
2023-03-11T04:35:15.416Z,933.34
2023-03-11T04:37:41.789Z,933.28
2023-03-11T04:40:08.185Z,933.37
2023-03-11T04:42:34.501Z,933.25
2023-03-11T04:45:00.911Z,933.35
2023-03-11T04:47:27.273Z,933.32
2023-03-11T04:49:53.697Z,933.34
2023-03-11T04:52:20.011Z,933.30
2023-03-11T04:54:46.405Z,933.31
2023-03-11T04:57:12.769Z,933.36
2023-03-11T04:59:39.156Z,933.37
2023-03-11T05:02:05.521Z,933.46
2023-03-11T05:04:31.898Z,933.51
2023-03-11T05:06:58.229Z,933.57
2023-03-11T05:09:24.587Z,933.54
2023-03-11T05:11:50.919Z,933.52
2023-03-11T05:14:17.336Z,933.55
2023-03-11T05:16:43.707Z,933.53
2023-03-11T05:19:10.047Z,933.63
2023-03-11T05:21:36.383Z,933.63
2023-03-11T05:24:02.775Z,933.70
2023-03-11T05:26:29.136Z,933.76
2023-03-11T05:28:55.515Z,933.78
2023-03-11T05:31:21.940Z,933.85
2023-03-11T05:33:48.240Z,933.91
2023-03-11T05:36:14.612Z,933.89
2023-03-11T05:38:40.963Z,933.93
2023-03-11T05:41:07.338Z,933.90
2023-03-11T05:43:33.719Z,933.97
2023-03-11T05:46:00.048Z,934.10
2023-03-11T05:48:26.406Z,934.13
2023-03-11T05:50:52.747Z,934.06
2023-03-11T05:53:19.145Z,934.12
2023-03-11T05:55:45.648Z,934.24
2023-03-11T05:58:12.097Z,934.20
2023-03-11T06:00:38.398Z,934.27
2023-03-11T06:03:04.749Z,934.35
2023-03-11T06:05:31.092Z,934.34
2023-03-11T06:07:57.525Z,934.42
2023-03-11T06:10:24.262Z,934.41
2023-03-11T06:12:50.718Z,934.41
2023-03-11T06:15:17.054Z,934.45
2023-03-11T06:17:43.401Z,934.47
2023-03-11T06:20:09.726Z,934.49
2023-03-11T06:22:37.684Z,934.47
2023-03-11T06:25:02.649Z,934.48
2023-03-11T06:27:29.003Z,934.50
2023-03-11T06:29:55.372Z,934.49
2023-03-11T06:32:21.784Z,934.51
2023-03-11T06:34:48.111Z,934.51
2023-03-11T06:37:14.639Z,934.50
2023-03-11T06:39:40.972Z,934.52
2023-03-11T06:42:07.360Z,934.52
2023-03-11T06:44:33.729Z,934.53
2023-03-11T06:47:00.087Z,934.50
2023-03-11T06:49:26.636Z,934.51
2023-03-11T06:51:53.012Z,934.55
2023-03-11T06:54:19.334Z,934.53
2023-03-11T06:56:45.725Z,934.53
2023-03-11T06:59:12.047Z,934.47
2023-03-11T07:01:38.417Z,934.54
2023-03-11T07:04:04.819Z,934.51
2023-03-11T07:06:31.192Z,934.53
2023-03-11T07:08:57.549Z,934.61
2023-03-11T07:11:23.962Z,934.53
2023-03-11T07:13:50.286Z,934.56
2023-03-11T07:16:17.006Z,934.59
2023-03-11T07:18:42.982Z,934.57
2023-03-11T07:21:09.341Z,934.58
2023-03-11T07:23:35.960Z,934.50
2023-03-11T07:26:03.901Z,934.51
2023-03-11T07:28:30.267Z,934.50
2023-03-11T07:30:56.765Z,934.39
2023-03-11T07:33:23.137Z,934.38
2023-03-11T07:35:49.531Z,934.39
2023-03-11T07:38:15.877Z,934.29
2023-03-11T07:40:42.374Z,934.27
2023-03-11T07:43:08.696Z,934.27
2023-03-11T07:45:35.126Z,934.22
2023-03-11T07:48:01.449Z,934.12
2023-03-11T07:50:28.043Z,934.07
2023-03-11T07:52:54.459Z,934.07
2023-03-11T07:55:20.870Z,934.15
2023-03-11T07:57:47.189Z,933.98
2023-03-11T08:00:15.008Z,934.01
2023-03-11T08:02:41.347Z,933.95
2023-03-11T08:05:07.736Z,933.88
2023-03-11T08:07:34.064Z,933.76
2023-03-11T08:10:00.739Z,933.75
2023-03-11T08:12:27.061Z,933.72
2023-03-11T08:14:53.463Z,933.70
2023-03-11T08:17:19.821Z,933.61
2023-03-11T08:19:46.204Z,933.60
2023-03-11T08:22:13.651Z,933.56
2023-03-11T08:24:40.049Z,933.55
2023-03-11T08:27:06.413Z,933.47
2023-03-11T08:29:32.823Z,933.44
2023-03-11T08:31:59.182Z,933.34
2023-03-11T08:34:25.536Z,933.31
2023-03-11T08:36:51.916Z,933.27
2023-03-11T08:39:18.305Z,933.25
2023-03-11T08:41:44.675Z,933.22
2023-03-11T08:44:11.086Z,933.20
2023-03-11T08:46:37.476Z,933.21
2023-03-11T08:49:03.826Z,933.18
2023-03-11T08:51:30.213Z,933.12
2023-03-11T08:53:56.887Z,933.08
2023-03-11T08:56:23.228Z,933.10
2023-03-11T08:58:49.622Z,933.01
2023-03-11T09:01:15.940Z,932.99
2023-03-11T09:03:42.384Z,932.97
2023-03-11T09:06:08.752Z,933.04
2023-03-11T09:08:35.109Z,932.97
2023-03-11T09:11:01.485Z,933.04
2023-03-11T09:13:27.828Z,932.97
2023-03-11T09:15:54.252Z,932.85
2023-03-11T09:18:20.636Z,932.95
2023-03-11T09:20:47.003Z,932.91
2023-03-11T09:23:13.394Z,932.86
2023-03-11T09:25:39.748Z,932.78
2023-03-11T09:28:06.110Z,932.83
2023-03-11T09:30:32.483Z,932.87
2023-03-11T09:32:58.883Z,932.86
2023-03-11T09:35:26.268Z,932.88
2023-03-11T09:37:52.623Z,932.78
2023-03-11T09:40:18.959Z,932.83
2023-03-11T09:42:45.306Z,932.86
2023-03-11T09:45:11.681Z,932.77
2023-03-11T09:47:38.030Z,932.82
2023-03-11T09:50:04.419Z,932.88
2023-03-11T09:52:30.764Z,932.84
2023-03-11T09:54:57.086Z,932.70
2023-03-11T09:57:23.472Z,932.74
2023-03-11T09:59:49.799Z,932.74
2023-03-11T10:02:16.325Z,932.73
2023-03-11T10:04:42.522Z,932.78
2023-03-11T10:07:08.922Z,932.67
2023-03-11T10:09:36.519Z,932.69
2023-03-11T10:12:01.645Z,932.71
2023-03-11T10:14:27.978Z,932.77
2023-03-11T10:16:54.357Z,932.81
2023-03-11T10:19:20.674Z,932.86
2023-03-11T10:21:47.033Z,932.86
2023-03-11T10:24:13.402Z,932.84
2023-03-11T10:26:39.789Z,932.85
2023-03-11T10:29:06.191Z,932.92
2023-03-11T10:31:32.681Z,932.84
2023-03-11T10:33:58.983Z,932.78
2023-03-11T10:36:25.366Z,932.79
2023-03-11T10:38:51.775Z,932.81
2023-03-11T10:41:18.139Z,932.81
2023-03-11T10:43:44.483Z,932.83
2023-03-11T10:46:10.917Z,932.79
2023-03-11T10:48:37.437Z,932.81
2023-03-11T10:51:03.790Z,932.83
2023-03-11T10:53:30.173Z,932.99
2023-03-11T10:55:56.592Z,933.45
2023-03-11T10:58:22.919Z,933.12
2023-03-11T11:00:49.329Z,933.19
2023-03-11T11:03:15.641Z,933.14
2023-03-11T11:05:42.026Z,933.06
2023-03-11T11:08:08.395Z,933.19
2023-03-11T11:10:34.766Z,933.13
2023-03-11T11:13:01.106Z,933.04
2023-03-11T11:15:27.600Z,933.04
2023-03-11T11:17:54.015Z,933.02
2023-03-11T11:20:20.419Z,933.00
2023-03-11T11:22:46.752Z,932.94
2023-03-11T11:25:13.133Z,932.82
2023-03-11T11:27:39.423Z,932.76
2023-03-11T11:30:05.871Z,932.66
2023-03-11T11:32:32.352Z,932.61
2023-03-11T11:34:58.687Z,932.60
2023-03-11T11:37:25.062Z,932.50
2023-03-11T11:39:51.612Z,932.48
2023-03-11T11:42:17.791Z,932.45
2023-03-11T11:44:44.214Z,932.44
2023-03-11T11:47:10.529Z,932.32
2023-03-11T11:49:36.887Z,932.24
2023-03-11T11:52:03.226Z,932.30
2023-03-11T11:54:29.630Z,932.28
2023-03-11T11:56:55.960Z,932.19
2023-03-11T11:59:22.304Z,932.24
2023-03-11T12:01:48.676Z,932.27
2023-03-11T12:04:15.018Z,932.15
2023-03-11T12:06:41.345Z,932.16
2023-03-11T12:09:07.789Z,932.03
2023-03-11T12:11:34.131Z,932.01
2023-03-11T12:14:00.534Z,932.02
2023-03-11T12:16:28.068Z,932.06
2023-03-11T12:18:54.469Z,931.91
2023-03-11T12:21:20.788Z,931.91
2023-03-11T12:23:47.251Z,931.93
2023-03-11T12:26:13.588Z,931.97
2023-03-11T12:28:39.905Z,932.00
2023-03-11T12:31:06.413Z,931.97
2023-03-11T12:33:32.758Z,931.90
2023-03-11T12:35:59.239Z,931.85
2023-03-11T12:38:25.543Z,931.89
2023-03-11T12:40:51.954Z,931.82
2023-03-11T12:43:18.321Z,931.87
2023-03-11T12:45:44.685Z,931.90
2023-03-11T12:48:11.009Z,932.10
2023-03-11T12:50:39.785Z,931.95
2023-03-11T12:53:06.197Z,932.14
2023-03-11T12:55:33.746Z,932.15
2023-03-11T12:57:58.948Z,932.14
2023-03-11T13:00:25.335Z,932.22
2023-03-11T13:02:51.816Z,932.27
2023-03-11T13:05:18.262Z,932.26
2023-03-11T13:07:44.587Z,932.34
2023-03-11T13:10:10.924Z,932.39
2023-03-11T13:12:37.283Z,932.32
2023-03-11T13:15:03.755Z,932.45
2023-03-11T13:17:32.825Z,932.51
2023-03-11T13:19:59.196Z,932.59
2023-03-11T13:22:25.522Z,932.81
2023-03-11T13:24:51.879Z,932.82
2023-03-11T13:27:18.233Z,932.97
2023-03-11T13:29:44.636Z,933.05
2023-03-11T13:32:12.702Z,933.06
2023-03-11T13:34:37.416Z,933.28
2023-03-11T13:37:03.743Z,933.41
2023-03-11T13:39:30.185Z,933.50
2023-03-11T13:41:56.519Z,933.59
2023-03-11T13:44:25.029Z,933.66
2023-03-11T13:46:51.422Z,933.67
2023-03-11T13:49:17.830Z,933.64
2023-03-11T13:51:44.266Z,933.66
2023-03-11T13:54:10.676Z,933.77
2023-03-11T13:56:38.479Z,933.71
2023-03-11T13:59:05.030Z,933.65
2023-03-11T14:01:31.402Z,933.55
2023-03-11T14:03:57.776Z,933.43
2023-03-11T14:06:24.090Z,933.48
2023-03-11T14:08:50.428Z,933.45
2023-03-11T14:11:16.996Z,933.46
2023-03-11T14:13:43.431Z,933.41
2023-03-11T14:16:09.773Z,933.43
2023-03-11T14:18:50.647Z,933.57
2023-03-11T14:21:17.198Z,933.64
2023-03-11T14:23:44.711Z,933.65
2023-03-11T14:26:11.026Z,933.70
2023-03-11T14:28:37.379Z,933.76
2023-03-11T14:31:03.750Z,933.71
2023-03-11T14:33:30.175Z,933.73
2023-03-11T14:35:56.522Z,933.76
2023-03-11T14:38:22.907Z,933.77
2023-03-11T14:40:51.195Z,933.72
2023-03-11T14:43:15.609Z,933.79
2023-03-11T14:45:42.165Z,933.79
2023-03-11T14:48:08.531Z,933.87
2023-03-11T14:50:34.896Z,933.93
2023-03-11T14:53:03.046Z,933.98
2023-03-11T14:55:27.731Z,933.98
2023-03-11T14:57:54.138Z,934.07
2023-03-11T15:00:20.509Z,934.00
2023-03-11T15:02:46.962Z,934.10
2023-03-11T15:05:13.301Z,934.22
2023-03-11T15:07:39.755Z,934.27
2023-03-11T15:10:06.162Z,934.40
2023-03-11T15:12:32.540Z,934.46
2023-03-11T15:14:58.890Z,934.48
2023-03-11T15:17:35.305Z,934.52
2023-03-11T15:19:51.627Z,934.56
2023-03-11T15:22:18.214Z,934.68
2023-03-11T15:24:44.568Z,934.81
2023-03-11T15:27:10.939Z,934.85
2023-03-11T15:29:37.341Z,934.91
2023-03-11T15:32:03.727Z,934.99
2023-03-11T15:34:32.270Z,935.07
2023-03-11T15:36:58.804Z,935.11
2023-03-11T15:39:25.137Z,935.06
2023-03-11T15:41:51.503Z,935.12
2023-03-11T15:44:19.497Z,935.20
2023-03-11T15:46:44.253Z,935.31
2023-03-11T15:49:10.588Z,935.32
2023-03-11T15:51:36.953Z,935.39
2023-03-11T15:54:03.373Z,935.44
2023-03-11T15:56:30.245Z,935.54
2023-03-11T15:58:56.642Z,935.56
2023-03-11T16:01:23.021Z,935.66
2023-03-11T16:03:49.386Z,935.73
2023-03-11T16:06:15.668Z,935.68
2023-03-11T16:08:42.065Z,935.83
2023-03-11T16:11:08.402Z,935.87
2023-03-11T16:13:34.746Z,935.90
2023-03-11T16:16:03.460Z,935.94
2023-03-11T16:18:27.556Z,935.98
2023-03-11T16:20:53.946Z,936.05
2023-03-11T16:23:20.301Z,936.10
2023-03-11T16:25:46.646Z,936.09
2023-03-11T16:28:13.010Z,936.26
2023-03-11T16:30:39.396Z,936.40
2023-03-11T16:33:05.722Z,936.50
2023-03-11T16:35:32.155Z,936.44
2023-03-11T16:37:58.460Z,936.57
2023-03-11T16:40:24.804Z,936.63
2023-03-11T16:42:51.177Z,936.66
2023-03-11T16:45:17.569Z,936.78
2023-03-11T16:47:43.936Z,936.91
2023-03-11T16:50:10.440Z,936.84
2023-03-11T16:52:36.879Z,937.04
2023-03-11T16:55:05.308Z,937.04
2023-03-11T16:57:33.852Z,937.17
2023-03-11T17:00:00.320Z,937.22
2023-03-11T17:02:26.626Z,937.26
2023-03-11T17:04:53.012Z,937.34
2023-03-11T17:07:19.325Z,937.51
2023-03-11T17:09:46.106Z,937.58
2023-03-11T17:12:12.432Z,937.60
2023-03-11T17:14:38.853Z,937.73
2023-03-11T17:17:06.418Z,937.87
2023-03-11T17:19:33.834Z,937.94
2023-03-11T17:22:00.211Z,938.04
2023-03-11T17:24:26.609Z,938.17
2023-03-11T17:26:52.975Z,938.24
2023-03-11T17:29:19.399Z,938.34
2023-03-11T17:31:45.817Z,938.49
2023-03-11T17:34:12.171Z,938.48
2023-03-11T17:36:38.797Z,938.46
2023-03-11T17:39:05.396Z,938.55
2023-03-11T17:41:31.756Z,938.64
2023-03-11T17:43:58.268Z,938.75
2023-03-11T17:46:24.611Z,938.86
2023-03-11T17:48:51.038Z,938.97
2023-03-11T17:51:17.405Z,939.02
2023-03-11T17:53:45.776Z,938.98
2023-03-11T17:56:10.137Z,939.01
2023-03-11T17:58:36.488Z,939.00
2023-03-11T18:01:10.182Z,938.98
2023-03-11T18:03:36.573Z,939.07
2023-03-11T18:06:03.937Z,939.13
2023-03-11T18:08:30.345Z,939.16
2023-03-11T18:10:56.707Z,939.24
2023-03-11T18:13:23.104Z,939.30
2023-03-11T18:15:49.508Z,939.31
2023-03-11T18:18:15.918Z,939.31
2023-03-11T18:20:44.682Z,939.33
2023-03-11T18:23:11.055Z,939.44
2023-03-11T18:25:37.450Z,939.51
2023-03-11T18:28:03.915Z,939.64
2023-03-11T18:30:30.272Z,939.66
2023-03-11T18:32:56.787Z,939.63
2023-03-11T18:35:23.472Z,939.73
2023-03-11T18:37:49.866Z,939.71
2023-03-11T18:40:16.185Z,939.79
2023-03-11T18:42:42.629Z,939.82
2023-03-11T18:45:08.996Z,939.85
2023-03-11T18:47:35.387Z,939.87
2023-03-11T18:50:01.787Z,939.96
2023-03-11T18:52:28.228Z,939.96
2023-03-11T18:54:54.539Z,940.03
2023-03-11T18:57:20.933Z,939.92
2023-03-11T18:59:47.334Z,939.92
2023-03-11T19:02:13.749Z,939.84
2023-03-11T19:04:40.227Z,939.90
2023-03-11T19:07:06.564Z,939.96
2023-03-11T19:09:32.927Z,939.98
2023-03-11T19:11:59.268Z,940.07
2023-03-11T19:14:25.651Z,940.06
2023-03-11T19:16:52.810Z,940.08
2023-03-11T19:19:19.123Z,940.16
2023-03-11T19:21:45.493Z,940.19
2023-03-11T19:24:11.813Z,940.25
2023-03-11T19:26:44.863Z,940.36
2023-03-11T19:29:05.617Z,940.38
2023-03-11T19:31:33.113Z,940.51
2023-03-11T19:33:59.431Z,940.52
2023-03-11T19:36:25.835Z,940.54
2023-03-11T19:38:52.936Z,940.65
2023-03-11T19:41:19.356Z,940.67
2023-03-11T19:43:45.738Z,940.73
2023-03-11T19:46:12.174Z,940.78
2023-03-11T19:48:38.549Z,940.78
2023-03-11T19:51:04.972Z,940.86
2023-03-11T19:53:33.723Z,940.85
2023-03-11T19:56:00.232Z,940.89
2023-03-11T19:58:29.937Z,940.89
2023-03-11T20:00:52.940Z,940.96
2023-03-11T20:03:19.315Z,940.99
2023-03-11T20:05:45.783Z,941.03
2023-03-11T20:08:12.020Z,941.21
2023-03-11T20:10:38.351Z,941.18
2023-03-11T20:13:04.673Z,941.21
2023-03-11T20:15:31.141Z,941.24
2023-03-11T20:17:57.463Z,941.26
2023-03-11T20:20:24.037Z,941.33
2023-03-11T20:22:50.418Z,941.23
2023-03-11T20:25:16.842Z,941.36
2023-03-11T20:27:43.201Z,941.31
2023-03-11T20:30:09.793Z,941.33
2023-03-11T20:32:36.140Z,941.45
2023-03-11T20:35:02.458Z,941.44
2023-03-11T20:37:28.813Z,941.38
2023-03-11T20:40:02.844Z,941.43
2023-03-11T20:42:29.304Z,941.55
2023-03-11T20:44:55.668Z,941.56
2023-03-11T20:47:22.151Z,941.59
2023-03-11T20:49:48.718Z,941.66
2023-03-11T20:52:14.946Z,941.58
2023-03-11T20:54:41.299Z,941.59
2023-03-11T20:57:07.700Z,941.53
2023-03-11T20:59:34.168Z,941.55
2023-03-11T21:02:00.539Z,941.62
2023-03-11T21:04:26.963Z,941.60
2023-03-11T21:06:53.321Z,941.61
2023-03-11T21:09:19.807Z,941.53
2023-03-11T21:11:46.200Z,941.54
2023-03-11T21:14:12.462Z,941.53
2023-03-11T21:16:38.872Z,941.56
2023-03-11T21:19:05.291Z,941.63
2023-03-11T21:21:31.694Z,941.71
2023-03-11T21:23:58.337Z,941.78
2023-03-11T21:26:24.788Z,941.84
2023-03-11T21:28:51.346Z,941.84
2023-03-11T21:31:17.783Z,941.81
2023-03-11T21:33:44.131Z,941.94
2023-03-11T21:36:10.808Z,941.91
2023-03-11T21:38:37.112Z,941.95
2023-03-11T21:41:03.411Z,941.92
2023-03-11T21:43:29.779Z,941.93
2023-03-11T21:45:56.435Z,941.84
2023-03-11T21:48:23.912Z,941.92
2023-03-11T21:50:50.289Z,941.90
2023-03-11T21:53:16.616Z,941.95
2023-03-11T21:55:43.215Z,942.05
2023-03-11T21:58:09.656Z,942.12
2023-03-11T22:00:35.868Z,942.18
2023-03-11T22:03:02.274Z,942.19
2023-03-11T22:05:31.149Z,942.24
2023-03-11T22:07:57.498Z,942.20
2023-03-11T22:10:23.868Z,942.11
2023-03-11T22:12:51.500Z,942.04
2023-03-11T22:15:17.700Z,942.06
2023-03-11T22:17:44.236Z,942.10
2023-03-11T22:20:10.398Z,942.13
2023-03-11T22:22:36.890Z,942.19
2023-03-11T22:25:03.125Z,942.21
2023-03-11T22:27:30.781Z,942.25
2023-03-11T22:29:56.121Z,942.26
2023-03-11T22:32:22.492Z,942.26
2023-03-11T22:34:48.977Z,942.37
2023-03-11T22:37:15.418Z,942.43
2023-03-11T22:39:41.738Z,942.44
2023-03-11T22:42:08.203Z,942.45
2023-03-11T22:44:35.927Z,942.59
2023-03-11T22:47:01.991Z,942.53
2023-03-11T22:49:28.389Z,942.50
2023-03-11T22:51:55.588Z,942.59
2023-03-11T22:54:22.052Z,942.69
2023-03-11T22:56:48.329Z,942.77
2023-03-11T22:59:14.753Z,942.87
2023-03-11T23:01:41.114Z,942.74
2023-03-11T23:04:08.643Z,942.74
2023-03-11T23:06:34.957Z,942.71
2023-03-11T23:09:01.341Z,942.73
2023-03-11T23:11:27.835Z,942.70
2023-03-11T23:13:54.169Z,942.72
2023-03-11T23:16:20.627Z,942.71
2023-03-11T23:18:46.942Z,942.77
2023-03-11T23:21:13.251Z,942.73
2023-03-11T23:23:39.628Z,942.74
2023-03-11T23:26:05.951Z,942.78
2023-03-11T23:28:32.304Z,942.87
2023-03-11T23:30:58.649Z,942.90
2023-03-11T23:33:25.017Z,942.86
2023-03-11T23:35:51.433Z,942.95
2023-03-11T23:38:17.754Z,942.95
2023-03-11T23:40:44.077Z,943.04
2023-03-11T23:43:10.420Z,943.03
2023-03-11T23:45:36.814Z,943.04
2023-03-11T23:48:03.164Z,942.98
2023-03-11T23:50:29.579Z,942.92
2023-03-11T23:52:55.879Z,942.94
2023-03-11T23:55:22.254Z,943.04
2023-03-11T23:57:48.599Z,942.94
